Terminal Aerodrome Forecast
Issued by NWS

Home | Current Version | Previous Version | Graphics & Text | Print | Product List | Glossary On
Versions: 1 2 3 4 5 6 7 8 9 10 11 12 13 14
000
FTUS43 KGRB 161138
TAFCWA
TAF
KCWA 161138Z 1612/1712 33008KT P6SM SCT012 BKN070
      TEMPO 1614/1617 BKN012
     FM161700 31008KT P6SM SCT020 BKN035
     FM162300 29005KT P6SM SCT250
     FM170700 27008KT P6SM BKN100=

USA.gov is the U.S. government's official web portal to all federal, state and local government web resources and services.